Time;durP1;ratioP1;P1;durP2;ratioP2;P2;SDS_P1;SDS_P2;PMS_P1;PMS_P2;Temp;Humidity;BMP_temperature;BMP_pressure;BME280_temperature;BME280_humidity;BME280_pressure;Samples;Min_cycle;Max_cycle;Signal;HPM_P1;HPM_P2
2023/01/18 00:09:01;;;;;;;28.80;21.20;;;;;;;-0.64;93.22;97128.98;450109;1251;142943;-66
2023/01/18 00:19:11;;;;;;;30.70;18.90;;;;;;;-0.49;93.12;97114.05;442683;1251;144080;-66
2023/01/18 00:29:18;;;;;;;30.30;19.50;;;;;;;-0.35;92.87;97095.31;440399;1251;146531;-66
2023/01/18 00:39:24;;;;;;;26.30;16.00;;;;;;;-0.27;92.82;97073.35;432765;1254;143427;-65
2023/01/18 00:49:30;;;;;;;23.90;14.20;;;;;;;-0.05;92.39;97068.27;450222;1251;143313;-66
2023/01/18 00:59:36;;;;;;;19.80;13.40;;;;;;;0.17;91.88;97064.65;446997;1251;143002;-66
2023/01/18 01:09:43;;;;;;;22.40;12.70;;;;;;;0.40;91.60;97055.00;443160;1251;161031;-66
2023/01/18 01:30:14;;;;;;;19.80;12.50;;;;;;;0.92;90.68;97056.17;433714;1251;144348;-67
2023/01/18 01:40:20;;;;;;;19.60;11.30;;;;;;;1.03;90.34;97044.10;438312;1251;142364;-66
2023/01/18 01:50:31;;;;;;;18.70;10.80;;;;;;;1.16;89.85;97037.19;439953;1251;146065;-63
2023/01/18 02:00:37;;;;;;;16.30;9.20;;;;;;;1.30;89.55;97038.02;435627;1251;143973;-64
2023/01/18 02:10:43;;;;;;;17.10;10.10;;;;;;;1.43;89.02;97021.83;435278;1251;143102;-67
2023/01/18 02:21:14;;;;;;;11.90;8.80;;;;;;;1.57;88.35;97014.98;437201;1251;143467;-66
2023/01/18 02:31:26;;;;;;;17.10;9.40;;;;;;;1.79;87.56;97010.36;436983;1251;142703;-65
2023/01/18 02:52:05;;;;;;;13.90;8.90;;;;;;;2.00;86.24;97001.02;435039;1251;141974;-66
2023/01/18 03:02:15;;;;;;;15.70;11.00;;;;;;;1.86;86.95;97004.54;439123;1251;142588;-65
2023/01/18 03:12:44;;;;;;;15.70;11.50;;;;;;;1.67;88.13;96994.81;437668;1251;143112;-66
2023/01/18 03:43:48;;;;;;;17.20;13.10;;;;;;;1.30;91.54;96980.58;441428;1251;143551;-66
2023/01/18 03:54:00;;;;;;;16.60;12.70;;;;;;;1.27;92.52;96981.00;441148;1251;142085;-66
2023/01/18 04:04:07;;;;;;;14.60;11.30;;;;;;;1.25;93.37;96975.77;434404;1253;142726;-66
2023/01/18 04:14:13;;;;;;;16.40;11.50;;;;;;;1.23;94.35;96980.56;436879;1252;142186;-66
2023/01/18 04:24:19;;;;;;;13.50;10.30;;;;;;;1.17;95.13;96975.25;435077;1251;146848;-65
2023/01/18 04:34:25;;;;;;;13.60;10.10;;;;;;;1.12;95.59;96964.78;450415;1251;142597;-66
2023/01/18 04:44:31;;;;;;;14.00;9.80;;;;;;;1.06;96.02;96972.94;450276;1250;142797;-66
2023/01/18 04:54:37;;;;;;;13.70;9.80;;;;;;;1.05;96.55;96979.18;448472;1251;146294;-66
2023/01/18 05:04:43;;;;;;;13.50;10.40;;;;;;;1.03;97.10;96938.98;450319;1251;143042;-66
2023/01/18 05:14:49;;;;;;;15.40;12.10;;;;;;;0.92;97.74;96902.86;446579;1252;143337;-65
2023/01/18 05:24:55;;;;;;;18.60;11.50;;;;;;;0.81;98.10;96874.81;443449;1251;142092;-65
2023/01/18 05:35:00;;;;;;;15.40;11.40;;;;;;;0.73;98.20;96848.38;446391;1251;143547;-65
2023/01/18 05:45:09;;;;;;;14.40;9.80;;;;;;;0.65;98.41;96887.39;450332;1251;141917;-66
2023/01/18 05:55:15;;;;;;;13.00;8.90;;;;;;;0.64;98.60;96889.40;449533;1250;143256;-65
2023/01/18 06:05:21;;;;;;;11.30;9.00;;;;;;;0.65;98.69;96898.09;450351;1251;143560;-66
2023/01/18 06:15:27;;;;;;;15.40;9.30;;;;;;;0.65;98.93;96916.89;449590;1251;143639;-65
2023/01/18 06:25:33;;;;;;;11.60;8.60;;;;;;;0.67;99.07;96904.85;445732;1251;143029;-65
2023/01/18 06:35:38;;;;;;;12.80;9.80;;;;;;;0.67;99.21;96871.14;444551;1251;142529;-64
2023/01/18 06:45:44;;;;;;;10.00;6.80;;;;;;;0.66;99.45;96879.61;443222;1251;142748;-64
2023/01/18 06:55:58;;;;;;;12.70;9.60;;;;;;;0.67;99.65;96911.58;450219;1251;142566;-64
2023/01/18 07:06:05;;;;;;;12.00;9.80;;;;;;;0.70;99.86;96918.30;450383;1251;142665;-64
2023/01/18 07:16:16;;;;;;;12.10;9.40;;;;;;;0.73;99.88;96880.56;449601;1251;144043;-63
2023/01/18 07:26:23;;;;;;;12.80;11.40;;;;;;;0.73;99.92;96883.27;450276;1251;142819;-64
2023/01/18 07:36:29;;;;;;;18.60;13.30;;;;;;;0.74;100.00;96888.02;449595;1251;143356;-64
2023/01/18 07:46:34;;;;;;;16.70;12.10;;;;;;;0.78;100.00;96887.12;450325;1251;142749;-63
2023/01/18 07:56:40;;;;;;;19.50;12.30;;;;;;;0.82;100.00;96882.20;450357;1251;144451;-64
2023/01/18 08:06:46;;;;;;;17.90;13.30;;;;;;;0.87;100.00;96870.33;449669;1251;142601;-64
2023/01/18 08:16:52;;;;;;;15.60;12.70;;;;;;;0.87;100.00;96851.86;450408;1252;142943;-65
2023/01/18 08:26:58;;;;;;;17.80;12.20;;;;;;;0.90;100.00;96830.48;449676;1251;144151;-65
2023/01/18 08:37:04;;;;;;;15.90;10.20;;;;;;;0.96;100.00;96815.76;449680;1252;145463;-64
2023/01/18 08:47:10;;;;;;;13.80;9.10;;;;;;;1.02;100.00;96819.47;450401;1251;143179;-63
2023/01/18 08:57:16;;;;;;;13.40;8.40;;;;;;;1.14;100.00;96800.23;450437;1251;143452;-64
2023/01/18 09:07:22;;;;;;;11.90;9.30;;;;;;;1.31;100.00;96793.16;449950;1251;196527;-64
2023/01/18 09:17:28;;;;;;;12.30;8.70;;;;;;;1.41;99.85;96793.67;450469;1251;143728;-64
2023/01/18 09:27:34;;;;;;;10.40;7.40;;;;;;;1.39;99.72;96817.09;449214;1252;143065;-65
2023/01/18 09:37:40;;;;;;;11.70;7.70;;;;;;;1.33;99.37;96836.65;450449;1252;142622;-64
2023/01/18 09:47:52;;;;;;;14.40;9.20;;;;;;;1.30;99.43;96827.23;450569;1250;182297;-65
2023/01/18 09:58:12;;;;;;;16.20;9.60;;;;;;;1.16;99.38;96828.84;449751;1251;142175;-65
2023/01/18 10:08:23;;;;;;;15.40;10.60;;;;;;;1.13;99.75;96838.38;450491;1251;141775;-65
2023/01/18 10:18:30;;;;;;;17.10;11.70;;;;;;;1.12;99.84;96828.83;449715;1251;145786;-65
2023/01/18 10:28:46;;;;;;;17.10;12.60;;;;;;;1.09;99.95;96821.05;450470;1251;143658;-64
2023/01/18 10:38:54;;;;;;;20.20;14.30;;;;;;;1.06;100.00;96818.21;450464;1251;142217;-64
2023/01/18 10:49:01;;;;;;;21.90;16.20;;;;;;;1.00;100.00;96825.50;449713;1251;185649;-65
2023/01/18 10:59:23;;;;;;;22.10;15.30;;;;;;;0.94;100.00;96837.13;450441;1251;147062;-66
2023/01/18 11:09:43;;;;;;;20.30;13.60;;;;;;;0.95;100.00;96827.75;446975;1252;145535;-65
2023/01/18 11:20:07;;;;;;;24.70;16.20;;;;;;;0.91;100.00;96845.38;450224;1251;142847;-64
2023/01/18 11:30:22;;;;;;;16.40;12.30;;;;;;;0.93;100.00;96848.86;435043;1254;142704;-64
2023/01/18 11:40:31;;;;;;;16.70;11.60;;;;;;;0.96;100.00;96849.67;445456;1251;196400;-65
2023/01/18 11:50:43;;;;;;;15.70;11.70;;;;;;;0.95;100.00;96853.73;450588;1252;142390;-64
2023/01/18 12:00:59;;;;;;;13.80;9.80;;;;;;;1.02;100.00;96854.47;449754;1251;142975;-65
2023/01/18 12:11:17;;;;;;;14.30;10.40;;;;;;;1.12;100.00;96856.00;450476;1251;145718;-65
2023/01/18 12:21:32;;;;;;;13.90;10.90;;;;;;;1.19;100.00;96876.57;449110;1251;144229;-64
2023/01/18 12:31:54;;;;;;;12.90;9.30;;;;;;;1.24;100.00;96896.59;450351;1252;142268;-65
2023/01/18 12:42:04;;;;;;;15.00;11.10;;;;;;;1.18;100.00;96903.20;450493;1251;142463;-64
2023/01/18 12:52:15;;;;;;;17.50;12.30;;;;;;;1.19;100.00;96910.03;449758;1251;142870;-64
2023/01/18 13:02:31;;;;;;;15.20;9.90;;;;;;;1.27;100.00;96926.70;450476;1251;143213;-64
2023/01/18 13:12:38;;;;;;;13.20;9.10;;;;;;;1.28;100.00;96947.31;449748;1251;143624;-65
2023/01/18 13:22:56;;;;;;;18.70;12.80;;;;;;;1.28;100.00;96962.30;447592;1252;142649;-64
2023/01/18 13:33:13;;;;;;;14.50;11.10;;;;;;;1.23;100.00;96970.36;450399;1251;145016;-64
2023/01/18 13:44:01;;;;;;;10.50;9.30;;;;;;;1.16;100.00;96988.79;450058;1252;213840;-64
2023/01/18 13:54:08;;;;;;;13.20;9.00;;;;;;;0.88;99.94;97008.05;450490;1251;144292;-65
2023/01/18 14:04:24;;;;;;;;;;;;;;;0.67;99.99;97029.50;449708;1253;143622;-64
2023/01/18 14:14:33;;;;;;;9.20;8.10;;;;;;;0.52;100.00;97055.64;450693;1251;129505;-65
2023/01/18 14:24:58;;;;;;;10.50;9.10;;;;;;;0.38;100.00;97079.23;443209;1255;199578;-64
2023/01/18 14:35:16;;;;;;;12.40;9.10;;;;;;;0.28;100.00;97108.91;450444;1251;145083;-64
2023/01/18 14:45:26;;;;;;;12.20;9.50;;;;;;;0.17;100.00;97125.23;449586;1251;163355;-64
2023/01/18 14:55:34;;;;;;;10.30;8.20;;;;;;;0.11;100.00;97141.46;450359;1251;142445;-66
2023/01/18 15:05:41;;;;;;;11.20;8.40;;;;;;;0.11;100.00;97163.27;450382;1250;142535;-65
2023/01/18 15:15:48;;;;;;;14.70;10.40;;;;;;;0.12;100.00;97180.45;449532;1255;183452;-65
2023/01/18 15:25:56;;;;;;;16.20;11.50;;;;;;;0.10;100.00;97203.61;449801;1251;142562;-65
2023/01/18 15:36:03;;;;;;;15.10;12.10;;;;;;;0.07;100.00;97231.46;441260;1251;142409;-64
2023/01/18 15:46:12;;;;;;;26.10;16.00;;;;;;;-0.01;100.00;97263.42;449257;1251;146620;-65
2023/01/18 15:56:23;;;;;;;21.90;15.30;;;;;;;-0.06;100.00;97286.94;450230;1251;143144;-64
2023/01/18 16:06:35;;;;;;;16.90;13.20;;;;;;;-0.17;100.00;97307.48;449555;1251;143146;-65
2023/01/18 16:16:42;;;;;;;18.30;14.30;;;;;;;-0.21;100.00;97334.05;450311;1251;146151;-65
2023/01/18 16:26:48;;;;;;;18.60;13.90;;;;;;;-0.29;100.00;97351.50;450137;1251;144986;-64
2023/01/18 16:36:54;;;;;;;21.70;16.50;;;;;;;-0.36;100.00;97367.67;448138;1251;143036;-65
2023/01/18 16:47:00;;;;;;;20.60;15.90;;;;;;;-0.41;100.00;97388.80;449971;1251;196378;-65
2023/01/18 16:57:06;;;;;;;26.60;16.90;;;;;;;-0.43;100.00;97409.85;450119;1250;146561;-66
2023/01/18 17:07:13;;;;;;;22.90;15.20;;;;;;;-0.37;100.00;97427.91;440884;1251;143321;-65
2023/01/18 17:17:18;;;;;;;22.50;17.20;;;;;;;-0.38;100.00;97449.48;450294;1251;145256;-66
2023/01/18 17:27:24;;;;;;;22.80;16.20;;;;;;;-0.37;100.00;97462.14;449235;1251;143156;-65
2023/01/18 17:37:30;;;;;;;25.00;17.70;;;;;;;-0.35;100.00;97479.05;450112;1250;202989;-66
2023/01/18 17:47:38;;;;;;;22.70;16.70;;;;;;;-0.40;100.00;97498.25;450187;1251;143427;-65
2023/01/18 17:57:44;;;;;;;22.10;17.30;;;;;;;-0.40;100.00;97504.10;449484;1251;184889;-64
2023/01/18 18:07:50;;;;;;;23.40;16.50;;;;;;;-0.40;100.00;97522.46;450207;1250;146493;-65
2023/01/18 18:17:56;;;;;;;25.60;18.20;;;;;;;-0.41;100.00;97562.91;443937;1250;143232;-64
2023/01/18 18:28:02;;;;;;;30.70;20.90;;;;;;;-0.35;100.00;97597.54;448921;1251;143109;-65
2023/01/18 18:38:08;;;;;;;32.20;22.50;;;;;;;-0.32;100.00;97635.50;437687;1251;142574;-64
2023/01/18 18:48:15;;;;;;;30.90;22.70;;;;;;;-0.32;100.00;97671.95;448373;1251;143106;-64
2023/01/18 18:58:21;;;;;;;34.60;23.20;;;;;;;-0.31;100.00;97693.24;449800;1251;143125;-64
2023/01/18 19:08:27;;;;;;;38.50;25.50;;;;;;;-0.26;100.00;97704.02;450065;1251;144026;-65
2023/01/18 19:18:33;;;;;;;39.20;26.00;;;;;;;-0.22;100.00;97708.27;449366;1250;143352;-66
2023/01/18 19:28:40;;;;;;;43.30;27.20;;;;;;;-0.15;100.00;97710.88;450134;1250;142484;-64
2023/01/18 19:38:46;;;;;;;50.30;28.90;;;;;;;-0.13;100.00;97721.28;445751;1250;144038;-65
2023/01/18 19:49:02;;;;;;;40.00;22.40;;;;;;;-0.12;100.00;97740.98;445063;1250;197044;-65
2023/01/18 19:59:10;;;;;;;60.30;37.30;;;;;;;-0.07;100.00;97756.58;444026;1250;141674;-65
2023/01/18 20:09:16;;;;;;;56.10;33.80;;;;;;;-0.07;100.00;97776.71;450162;1251;143016;-64
2023/01/18 20:19:28;;;;;;;55.10;34.50;;;;;;;-0.08;100.00;97798.60;449794;1250;198394;-64
2023/01/18 20:29:33;;;;;;;63.20;34.40;;;;;;;-0.07;100.00;97806.08;450150;1251;143390;-65
2023/01/18 20:39:39;;;;;;;46.60;29.30;;;;;;;-0.04;100.00;97818.84;445966;1250;142918;-64
2023/01/18 20:49:45;;;;;;;46.70;31.00;;;;;;;0.05;100.00;97841.13;450136;1251;142948;-63
2023/01/18 20:59:52;;;;;;;41.00;28.40;;;;;;;0.09;100.00;97869.45;450160;1250;143036;-65
2023/01/18 21:09:58;;;;;;;42.90;25.90;;;;;;;0.13;100.00;97881.36;449322;1251;143804;-64
2023/01/18 21:20:04;;;;;;;45.90;26.70;;;;;;;0.14;100.00;97877.02;450198;1251;143733;-65
2023/01/18 21:30:14;;;;;;;44.20;28.60;;;;;;;0.18;100.00;97905.19;450240;1250;142115;-65
2023/01/18 21:40:20;;;;;;;43.80;30.10;;;;;;;0.26;100.00;97930.46;448536;1251;210980;-65
2023/01/18 22:00:50;;;;;;;40.00;25.50;;;;;;;0.36;100.00;97942.21;448642;1250;143718;-64
2023/01/18 22:10:56;;;;;;;38.00;27.70;;;;;;;0.42;100.00;97940.21;450157;1250;142495;-65
2023/01/18 22:21:04;;;;;;;47.20;29.70;;;;;;;0.46;100.00;97959.27;450256;1250;143314;-64
2023/01/18 22:31:10;;;;;;;43.20;27.50;;;;;;;0.50;100.00;97962.69;449415;1252;198329;-65
2023/01/18 22:41:19;;;;;;;48.70;29.90;;;;;;;0.53;100.00;97973.57;447737;1250;142500;-64
2023/01/18 22:51:25;;;;;;;44.60;28.20;;;;;;;0.55;100.00;97989.67;442863;1251;142551;-64
2023/01/18 23:01:32;;;;;;;46.30;28.70;;;;;;;0.57;100.00;98000.77;450207;1251;142563;-66
2023/01/18 23:11:39;;;;;;;42.90;23.80;;;;;;;0.58;100.00;98004.01;440525;1250;142801;-66
2023/01/18 23:21:45;;;;;;;43.50;25.30;;;;;;;0.55;100.00;98006.89;448709;1252;143309;-67
2023/01/18 23:31:51;;;;;;;45.80;26.40;;;;;;;0.52;100.00;98036.65;441024;1252;143695;-64
